sensor_id;sensor_type;location;lat;lon;timestamp;pressure;altitude;pressure_sealevel;temperature;humidity
36748;BME280;22716;51.556;5.080;2022-09-09T00:00:52;100565.06;;;15.09;100.00
36748;BME280;22716;51.556;5.080;2022-09-09T00:03:27;100561.56;;;15.09;100.00
36748;BME280;22716;51.556;5.080;2022-09-09T00:06:28;100553.09;;;14.99;100.00
36748;BME280;22716;51.556;5.080;2022-09-09T00:09:10;100548.81;;;14.95;100.00
36748;BME280;22716;51.556;5.080;2022-09-09T00:11:43;100559.25;;;15.00;100.00
36748;BME280;22716;51.556;5.080;2022-09-09T00:14:23;100551.44;;;14.97;100.00
36748;BME280;22716;51.556;5.080;2022-09-09T00:17:00;100540.16;;;14.92;100.00
36748;BME280;22716;51.556;5.080;2022-09-09T00:22:57;100548.03;;;14.93;100.00
36748;BME280;22716;51.556;5.080;2022-09-09T00:25:58;100549.69;;;14.96;100.00
36748;BME280;22716;51.556;5.080;2022-09-09T00:28:36;100534.06;;;14.90;100.00
36748;BME280;22716;51.556;5.080;2022-09-09T00:31:30;100536.53;;;14.94;100.00
36748;BME280;22716;51.556;5.080;2022-09-09T00:34:12;100539.94;;;14.98;100.00
36748;BME280;22716;51.556;5.080;2022-09-09T00:36:43;100538.19;;;14.98;100.00
36748;BME280;22716;51.556;5.080;2022-09-09T00:39:24;100540.88;;;14.97;100.00
36748;BME280;22716;51.556;5.080;2022-09-09T00:42:09;100541.00;;;14.92;100.00
36748;BME280;22716;51.556;5.080;2022-09-09T00:44:52;100531.44;;;14.90;100.00
36748;BME280;22716;51.556;5.080;2022-09-09T00:47:43;100530.63;;;14.88;100.00
36748;BME280;22716;51.556;5.080;2022-09-09T00:50:35;100521.97;;;14.83;100.00
36748;BME280;22716;51.556;5.080;2022-09-09T00:53:29;100528.13;;;14.83;100.00
36748;BME280;22716;51.556;5.080;2022-09-09T00:56:12;100524.63;;;14.83;100.00
36748;BME280;22716;51.556;5.080;2022-09-09T00:58:55;100526.41;;;14.82;100.00
36748;BME280;22716;51.556;5.080;2022-09-09T01:01:35;100501.34;;;14.69;100.00
36748;BME280;22716;51.556;5.080;2022-09-09T01:04:09;100519.41;;;14.81;100.00
36748;BME280;22716;51.556;5.080;2022-09-09T01:06:43;100520.31;;;14.80;100.00
36748;BME280;22716;51.556;5.080;2022-09-09T01:09:27;100497.81;;;14.70;100.00
36748;BME280;22716;51.556;5.080;2022-09-09T01:12:12;100517.66;;;14.80;100.00
36748;BME280;22716;51.556;5.080;2022-09-09T01:14:50;100518.53;;;14.81;100.00
36748;BME280;22716;51.556;5.080;2022-09-09T01:17:23;100506.41;;;14.75;100.00
36748;BME280;22716;51.556;5.080;2022-09-09T01:22:40;100512.28;;;14.83;100.00
36748;BME280;22716;51.556;5.080;2022-09-09T01:28:21;100497.44;;;14.81;100.00
36748;BME280;22716;51.556;5.080;2022-09-09T01:30:50;100502.63;;;14.84;100.00
36748;BME280;22716;51.556;5.080;2022-09-09T01:33:20;100497.34;;;14.84;100.00
36748;BME280;22716;51.556;5.080;2022-09-09T01:35:50;100489.69;;;14.76;100.00
36748;BME280;22716;51.556;5.080;2022-09-09T01:38:34;100486.19;;;14.76;100.00
36748;BME280;22716;51.556;5.080;2022-09-09T01:41:15;100466.41;;;14.63;100.00
36748;BME280;22716;51.556;5.080;2022-09-09T01:43:47;100481.91;;;14.72;100.00
36748;BME280;22716;51.556;5.080;2022-09-09T01:46:16;100490.59;;;14.75;100.00
36748;BME280;22716;51.556;5.080;2022-09-09T01:48:46;100491.41;;;14.77;100.00
36748;BME280;22716;51.556;5.080;2022-09-09T01:51:14;100486.13;;;14.77;100.00
36748;BME280;22716;51.556;5.080;2022-09-09T01:53:50;100480.94;;;14.74;100.00
36748;BME280;22716;51.556;5.080;2022-09-09T01:56:32;100479.88;;;14.80;100.00
36748;BME280;22716;51.556;5.080;2022-09-09T01:59:18;100478.94;;;14.82;100.00
36748;BME280;22716;51.556;5.080;2022-09-09T02:04:49;100485.25;;;14.77;100.00
36748;BME280;22716;51.556;5.080;2022-09-09T02:07:30;100488.63;;;14.82;100.00
36748;BME280;22716;51.556;5.080;2022-09-09T02:10:05;100483.50;;;14.77;100.00
36748;BME280;22716;51.556;5.080;2022-09-09T02:12:42;100487.91;;;14.77;100.00
36748;BME280;22716;51.556;5.080;2022-09-09T02:15:25;100473.13;;;14.71;100.00
36748;BME280;22716;51.556;5.080;2022-09-09T02:17:57;100481.81;;;14.75;100.00
36748;BME280;22716;51.556;5.080;2022-09-09T02:20:32;100480.09;;;14.74;100.00
36748;BME280;22716;51.556;5.080;2022-09-09T02:23:01;100483.66;;;14.73;100.00
36748;BME280;22716;51.556;5.080;2022-09-09T02:25:33;100480.19;;;14.71;100.00
36748;BME280;22716;51.556;5.080;2022-09-09T02:28:06;100476.72;;;14.70;100.00
36748;BME280;22716;51.556;5.080;2022-09-09T02:30:45;100475.84;;;14.70;100.00
36748;BME280;22716;51.556;5.080;2022-09-09T02:33:17;100474.16;;;14.67;100.00
36748;BME280;22716;51.556;5.080;2022-09-09T02:35:46;100470.59;;;14.68;100.00
36748;BME280;22716;51.556;5.080;2022-09-09T02:38:17;100462.78;;;14.65;100.00
36748;BME280;22716;51.556;5.080;2022-09-09T02:40:47;100468.94;;;14.66;100.00
36748;BME280;22716;51.556;5.080;2022-09-09T02:43:17;100461.09;;;14.64;100.00
36748;BME280;22716;51.556;5.080;2022-09-09T02:45:56;100463.72;;;14.64;100.00
36748;BME280;22716;51.556;5.080;2022-09-09T02:48:36;100460.13;;;14.67;100.00
36748;BME280;22716;51.556;5.080;2022-09-09T02:51:17;100457.59;;;14.64;100.00
36748;BME280;22716;51.556;5.080;2022-09-09T02:53:59;100463.72;;;14.64;100.00
36748;BME280;22716;51.556;5.080;2022-09-09T02:56:43;100467.22;;;14.65;100.00
36748;BME280;22716;51.556;5.080;2022-09-09T02:59:16;100470.69;;;14.65;100.00
36748;BME280;22716;51.556;5.080;2022-09-09T03:01:47;100464.59;;;14.65;100.00
36748;BME280;22716;51.556;5.080;2022-09-09T03:04:16;100467.94;;;14.70;100.00
36748;BME280;22716;51.556;5.080;2022-09-09T03:06:46;100473.09;;;14.73;100.00
36748;BME280;22716;51.556;5.080;2022-09-09T03:09:15;100469.59;;;14.72;100.00
36748;BME280;22716;51.556;5.080;2022-09-09T03:11:46;100474.88;;;14.72;100.00
36748;BME280;22716;51.556;5.080;2022-09-09T03:14:15;100462.78;;;14.65;100.00
36748;BME280;22716;51.556;5.080;2022-09-09T03:16:49;100477.63;;;14.69;100.00
36748;BME280;22716;51.556;5.080;2022-09-09T03:19:19;100475.88;;;14.68;100.00
36748;BME280;22716;51.556;5.080;2022-09-09T03:21:48;100474.22;;;14.66;100.00
36748;BME280;22716;51.556;5.080;2022-09-09T03:24:17;100482.13;;;14.66;100.00
36748;BME280;22716;51.556;5.080;2022-09-09T03:26:47;100474.22;;;14.66;100.00
36748;BME280;22716;51.556;5.080;2022-09-09T03:29:35;100478.63;;;14.65;100.00
36748;BME280;22716;51.556;5.080;2022-09-09T03:32:07;100472.44;;;14.66;100.00
36748;BME280;22716;51.556;5.080;2022-09-09T03:34:36;100475.97;;;14.65;100.00
36748;BME280;22716;51.556;5.080;2022-09-09T03:37:06;100465.50;;;14.64;100.00
36748;BME280;22716;51.556;5.080;2022-09-09T03:39:39;100462.78;;;14.65;100.00
36748;BME280;22716;51.556;5.080;2022-09-09T03:42:09;100459.22;;;14.68;100.00
36748;BME280;22716;51.556;5.080;2022-09-09T03:44:40;100459.22;;;14.68;100.00
36748;BME280;22716;51.556;5.080;2022-09-09T03:47:14;100461.00;;;14.67;100.00
36748;BME280;22716;51.556;5.080;2022-09-09T03:49:43;100457.47;;;14.67;100.00
36748;BME280;22716;51.556;5.080;2022-09-09T03:52:12;100449.00;;;14.57;100.00
36748;BME280;22716;51.556;5.080;2022-09-09T03:54:41;100451.59;;;14.58;100.00
36748;BME280;22716;51.556;5.080;2022-09-09T03:57:10;100456.81;;;14.60;100.00
36748;BME280;22716;51.556;5.080;2022-09-09T03:59:46;100447.16;;;14.59;100.00
36748;BME280;22716;51.556;5.080;2022-09-09T04:02:18;100457.59;;;14.64;100.00
36748;BME280;22716;51.556;5.080;2022-09-09T04:04:47;100454.19;;;14.60;100.00
36748;BME280;22716;51.556;5.080;2022-09-09T04:07:15;100454.09;;;14.63;100.00
36748;BME280;22716;51.556;5.080;2022-09-09T04:12:21;100456.72;;;14.63;100.00
36748;BME280;22716;51.556;5.080;2022-09-09T04:14:50;100436.97;;;14.50;100.00
36748;BME280;22716;51.556;5.080;2022-09-09T04:17:22;100452.41;;;14.61;100.00
36748;BME280;22716;51.556;5.080;2022-09-09T04:19:50;100456.81;;;14.60;100.00
36748;BME280;22716;51.556;5.080;2022-09-09T04:22:20;100451.44;;;14.63;100.00
36748;BME280;22716;51.556;5.080;2022-09-09T04:24:49;100444.34;;;14.65;100.00
36748;BME280;22716;51.556;5.080;2022-09-09T04:27:18;100433.25;;;14.55;100.00
36748;BME280;22716;51.556;5.080;2022-09-09T04:29:47;100451.50;;;14.62;100.00
36748;BME280;22716;51.556;5.080;2022-09-09T04:32:16;100447.06;;;14.62;100.00
36748;BME280;22716;51.556;5.080;2022-09-09T04:34:47;100441.81;;;14.62;100.00
36748;BME280;22716;51.556;5.080;2022-09-09T04:37:16;100446.13;;;14.65;100.00
36748;BME280;22716;51.556;5.080;2022-09-09T04:39:45;100447.91;;;14.64;100.00
36748;BME280;22716;51.556;5.080;2022-09-09T04:42:14;100440.88;;;14.65;100.00
36748;BME280;22716;51.556;5.080;2022-09-09T04:44:45;100407.22;;;14.45;100.00
36748;BME280;22716;51.556;5.080;2022-09-09T04:47:13;100435.53;;;14.66;100.00
36748;BME280;22716;51.556;5.080;2022-09-09T04:49:43;100428.47;;;14.67;100.00
36748;BME280;22716;51.556;5.080;2022-09-09T04:52:14;100425.69;;;14.71;100.00
36748;BME280;22716;51.556;5.080;2022-09-09T04:54:43;100422.03;;;14.75;100.00
36748;BME280;22716;51.556;5.080;2022-09-09T04:57:22;100426.31;;;14.79;100.00
36748;BME280;22716;51.556;5.080;2022-09-09T04:59:51;100428.84;;;14.82;100.00
36748;BME280;22716;51.556;5.080;2022-09-09T05:02:20;100425.38;;;14.80;100.00
36748;BME280;22716;51.556;5.080;2022-09-09T05:04:48;100403.56;;;14.75;100.00
36748;BME280;22716;51.556;5.080;2022-09-09T05:07:20;100413.69;;;14.87;100.00
36748;BME280;22716;51.556;5.080;2022-09-09T05:09:49;100416.28;;;14.89;100.00
36748;BME280;22716;51.556;5.080;2022-09-09T05:12:18;100411.88;;;14.89;100.00
36748;BME280;22716;51.556;5.080;2022-09-09T05:14:48;100411.00;;;14.89;100.00
36748;BME280;22716;51.556;5.080;2022-09-09T05:17:17;100409.34;;;14.86;100.00
36748;BME280;22716;51.556;5.080;2022-09-09T05:19:47;100432.09;;;14.89;100.00
36748;BME280;22716;51.556;5.080;2022-09-09T05:22:21;100409.44;;;14.83;100.00
36748;BME280;22716;51.556;5.080;2022-09-09T05:24:50;100429.31;;;14.93;100.00
36748;BME280;22716;51.556;5.080;2022-09-09T05:27:19;100430.19;;;14.94;100.00
36748;BME280;22716;51.556;5.080;2022-09-09T05:29:48;100405.00;;;14.85;100.00
36748;BME280;22716;51.556;5.080;2022-09-09T05:32:17;100421.41;;;14.93;100.00
36748;BME280;22716;51.556;5.080;2022-09-09T05:34:46;100418.78;;;14.93;100.00
36748;BME280;22716;51.556;5.080;2022-09-09T05:37:15;100429.16;;;14.98;100.00
36748;BME280;22716;51.556;5.080;2022-09-09T05:39:47;100429.00;;;15.02;100.00
36748;BME280;22716;51.556;5.080;2022-09-09T05:42:21;100419.56;;;14.95;100.00
36748;BME280;22716;51.556;5.080;2022-09-09T05:44:50;100427.09;;;15.06;100.00
36748;BME280;22716;51.556;5.080;2022-09-09T05:47:20;100423.41;;;15.11;100.00
36748;BME280;22716;51.556;5.080;2022-09-09T05:49:49;100429.25;;;15.20;100.00
36748;BME280;22716;51.556;5.080;2022-09-09T05:52:17;100419.69;;;15.17;100.00
36748;BME280;22716;51.556;5.080;2022-09-09T05:54:49;100419.56;;;15.20;100.00
36748;BME280;22716;51.556;5.080;2022-09-09T05:57:18;100414.97;;;15.25;100.00
36748;BME280;22716;51.556;5.080;2022-09-09T05:59:47;100424.41;;;15.32;100.00
36748;BME280;22716;51.556;5.080;2022-09-09T06:02:17;100434.91;;;15.34;100.00
36748;BME280;22716;51.556;5.080;2022-09-09T06:04:46;100426.91;;;15.35;100.00
36748;BME280;22716;51.556;5.080;2022-09-09T06:07:15;100429.69;;;15.32;100.00
36748;BME280;22716;51.556;5.080;2022-09-09T06:09:44;100437.63;;;15.32;100.00
36748;BME280;22716;51.556;5.080;2022-09-09T06:12:35;100431.25;;;15.38;100.00
36748;BME280;22716;51.556;5.080;2022-09-09T06:15:06;100430.59;;;15.31;100.00
36748;BME280;22716;51.556;5.080;2022-09-09T06:17:36;100436.63;;;15.35;100.00
36748;BME280;22716;51.556;5.080;2022-09-09T06:20:06;100438.34;;;15.36;100.00
36748;BME280;22716;51.556;5.080;2022-09-09T06:22:35;100429.41;;;15.40;100.00
36748;BME280;22716;51.556;5.080;2022-09-09T06:25:07;100434.44;;;15.46;100.00
36748;BME280;22716;51.556;5.080;2022-09-09T06:27:39;100424.47;;;15.55;100.00
36748;BME280;22716;51.556;5.080;2022-09-09T06:30:09;100431.44;;;15.56;100.00
36748;BME280;22716;51.556;5.080;2022-09-09T06:32:51;100423.38;;;15.61;100.00
36748;BME280;22716;51.556;5.080;2022-09-09T06:35:19;100434.69;;;15.64;100.00
36748;BME280;22716;51.556;5.080;2022-09-09T06:37:49;100425.81;;;15.65;100.00
36748;BME280;22716;51.556;5.080;2022-09-09T06:40:18;100429.31;;;15.66;100.00
36748;BME280;22716;51.556;5.080;2022-09-09T06:42:50;100426.56;;;15.69;100.00
36748;BME280;22716;51.556;5.080;2022-09-09T06:45:20;100423.97;;;15.67;100.00
36748;BME280;22716;51.556;5.080;2022-09-09T06:47:48;100429.88;;;15.74;100.00
36748;BME280;22716;51.556;5.080;2022-09-09T06:50:18;100421.63;;;15.83;100.00
36748;BME280;22716;51.556;5.080;2022-09-09T06:52:46;100416.16;;;15.88;100.00
36748;BME280;22716;51.556;5.080;2022-09-09T06:55:16;100428.09;;;15.98;100.00
36748;BME280;22716;51.556;5.080;2022-09-09T06:57:48;100422.91;;;15.95;100.00
36748;BME280;22716;51.556;5.080;2022-09-09T07:00:18;100420.94;;;16.00;100.00
36748;BME280;22716;51.556;5.080;2022-09-09T07:02:46;100417.59;;;15.96;100.00
36748;BME280;22716;51.556;5.080;2022-09-09T07:05:30;100415.66;;;16.00;100.00
36748;BME280;22716;51.556;5.080;2022-09-09T07:07:59;100416.41;;;16.03;100.00
36748;BME280;22716;51.556;5.080;2022-09-09T07:10:28;100424.09;;;16.09;100.00
36748;BME280;22716;51.556;5.080;2022-09-09T07:13:00;100421.22;;;16.15;100.00
36748;BME280;22716;51.556;5.080;2022-09-09T07:15:31;100416.59;;;16.20;100.00
36748;BME280;22716;51.556;5.080;2022-09-09T07:18:01;100416.44;;;16.25;100.00
36748;BME280;22716;51.556;5.080;2022-09-09T07:20:31;100418.88;;;16.30;100.00
36748;BME280;22716;51.556;5.080;2022-09-09T07:22:59;100376.78;;;16.03;100.00
36748;BME280;22716;51.556;5.080;2022-09-09T07:25:29;100427.25;;;16.41;100.00
36748;BME280;22716;51.556;5.080;2022-09-09T07:28:01;100425.19;;;16.47;100.00
36748;BME280;22716;51.556;5.080;2022-09-09T07:30:31;100420.50;;;16.55;100.00
36748;BME280;22716;51.556;5.080;2022-09-09T07:33:00;100418.19;;;16.68;100.00
36748;BME280;22716;51.556;5.080;2022-09-09T07:35:29;100424.16;;;16.73;100.00
36748;BME280;22716;51.556;5.080;2022-09-09T07:38:00;100419.03;;;16.90;100.00
36748;BME280;22716;51.556;5.080;2022-09-09T07:40:33;100430.19;;;16.97;100.00
36748;BME280;22716;51.556;5.080;2022-09-09T07:43:05;100406.66;;;16.91;100.00
36748;BME280;22716;51.556;5.080;2022-09-09T07:45:35;100415.38;;;16.93;100.00
36748;BME280;22716;51.556;5.080;2022-09-09T07:48:04;100422.66;;;16.88;100.00
36748;BME280;22716;51.556;5.080;2022-09-09T07:50:34;100421.84;;;16.86;100.00
36748;BME280;22716;51.556;5.080;2022-09-09T07:53:03;100413.03;;;16.85;100.00
36748;BME280;22716;51.556;5.080;2022-09-09T07:55:32;100411.94;;;16.91;100.00
36748;BME280;22716;51.556;5.080;2022-09-09T07:58:01;100419.88;;;16.91;100.00
36748;BME280;22716;51.556;5.080;2022-09-09T08:00:32;100419.06;;;16.89;100.00
36748;BME280;22716;51.556;5.080;2022-09-09T08:03:02;100418.19;;;16.88;100.00
36748;BME280;22716;51.556;5.080;2022-09-09T08:05:32;100421.41;;;16.96;100.00
36748;BME280;22716;51.556;5.080;2022-09-09T08:08:01;100420.28;;;17.02;100.00
36748;BME280;22716;51.556;5.080;2022-09-09T08:10:30;100420.41;;;16.99;100.00
36748;BME280;22716;51.556;5.080;2022-09-09T08:12:59;100425.47;;;17.03;100.00
36748;BME280;22716;51.556;5.080;2022-09-09T08:15:28;100428.13;;;17.03;100.00
36748;BME280;22716;51.556;5.080;2022-09-09T08:18:00;100434.56;;;16.98;100.00
36748;BME280;22716;51.556;5.080;2022-09-09T08:20:30;100424.09;;;16.95;100.00
36748;BME280;22716;51.556;5.080;2022-09-09T08:22:59;100428.47;;;16.96;100.00
36748;BME280;22716;51.556;5.080;2022-09-09T08:25:28;100426.75;;;16.95;100.00
36748;BME280;22716;51.556;5.080;2022-09-09T08:27:57;100431.25;;;16.93;100.00
36748;BME280;22716;51.556;5.080;2022-09-09T08:30:26;100425.09;;;16.92;100.00
36748;BME280;22716;51.556;5.080;2022-09-09T08:32:55;100420.94;;;16.87;100.00
36748;BME280;22716;51.556;5.080;2022-09-09T08:35:29;100429.47;;;16.93;100.00
36748;BME280;22716;51.556;5.080;2022-09-09T08:37:58;100433.81;;;16.94;100.00
36748;BME280;22716;51.556;5.080;2022-09-09T08:40:30;100430.25;;;16.95;100.00
36748;BME280;22716;51.556;5.080;2022-09-09T08:43:03;100433.44;;;17.03;100.00
36748;BME280;22716;51.556;5.080;2022-09-09T08:45:37;100438.06;;;17.18;100.00
36748;BME280;22716;51.556;5.080;2022-09-09T08:48:24;100447.34;;;17.28;100.00
36748;BME280;22716;51.556;5.080;2022-09-09T08:51:04;100440.38;;;17.26;100.00
36748;BME280;22716;51.556;5.080;2022-09-09T08:53:40;100442.81;;;17.30;100.00
36748;BME280;22716;51.556;5.080;2022-09-09T08:56:14;100443.47;;;17.35;100.00
36748;BME280;22716;51.556;5.080;2022-09-09T08:58:48;100449.56;;;17.38;100.00
36748;BME280;22716;51.556;5.080;2022-09-09T09:01:38;100437.53;;;17.30;100.00
36748;BME280;22716;51.556;5.080;2022-09-09T09:04:28;100451.41;;;17.35;100.00
36748;BME280;22716;51.556;5.080;2022-09-09T09:07:18;100448.84;;;17.34;100.00
36748;BME280;22716;51.556;5.080;2022-09-09T09:10:02;100455.19;;;17.30;100.00
36748;BME280;22716;51.556;5.080;2022-09-09T09:12:45;100464.06;;;17.29;100.00
36748;BME280;22716;51.556;5.080;2022-09-09T09:15:37;100461.56;;;17.26;100.00
36748;BME280;22716;51.556;5.080;2022-09-09T09:18:12;100463.75;;;17.16;100.00
36748;BME280;22716;51.556;5.080;2022-09-09T09:20:57;100468.22;;;17.14;100.00
36748;BME280;22716;51.556;5.080;2022-09-09T09:23:40;100467.66;;;17.08;100.00
36748;BME280;22716;51.556;5.080;2022-09-09T09:26:14;100475.66;;;17.06;100.00
36748;BME280;22716;51.556;5.080;2022-09-09T09:28:45;100466.13;;;17.02;100.00
36748;BME280;22716;51.556;5.080;2022-09-09T09:31:14;100465.41;;;16.99;100.00
36748;BME280;22716;51.556;5.080;2022-09-09T09:33:48;100476.84;;;16.99;100.00
36748;BME280;22716;51.556;5.080;2022-09-09T09:36:20;100468.16;;;16.96;100.00
36748;BME280;22716;51.556;5.080;2022-09-09T09:39:02;100469.28;;;16.90;100.00
36748;BME280;22716;51.556;5.080;2022-09-09T09:41:42;100463.31;;;16.85;100.00
36748;BME280;22716;51.556;5.080;2022-09-09T09:44:24;100477.22;;;16.90;100.00
36748;BME280;22716;51.556;5.080;2022-09-09T09:47:13;100469.03;;;16.96;100.00
36748;BME280;22716;51.556;5.080;2022-09-09T09:49:52;100464.56;;;16.97;100.00
36748;BME280;22716;51.556;5.080;2022-09-09T09:52:32;100470.09;;;17.12;100.00
36748;BME280;22716;51.556;5.080;2022-09-09T09:55:19;100463.53;;;17.21;100.00
36748;BME280;22716;51.556;5.080;2022-09-09T09:57:48;100463.47;;;17.22;100.00
36748;BME280;22716;51.556;5.080;2022-09-09T10:00:35;100431.00;;;16.99;100.00
36748;BME280;22716;51.556;5.080;2022-09-09T10:03:20;100465.00;;;17.28;100.00
36748;BME280;22716;51.556;5.080;2022-09-09T10:05:55;100448.38;;;17.24;100.00
36748;BME280;22716;51.556;5.080;2022-09-09T10:08:27;100467.03;;;17.42;100.00
36748;BME280;22716;51.556;5.080;2022-09-09T10:11:18;100470.53;;;17.42;100.00
36748;BME280;22716;51.556;5.080;2022-09-09T10:14:04;100464.25;;;17.45;100.00
36748;BME280;22716;51.556;5.080;2022-09-09T10:19:38;100475.34;;;17.54;100.00
36748;BME280;22716;51.556;5.080;2022-09-09T10:22:22;100479.63;;;17.57;100.00
36748;BME280;22716;51.556;5.080;2022-09-09T10:27:54;100438.16;;;17.56;100.00
36748;BME280;22716;51.556;5.080;2022-09-09T10:30:49;100419.88;;;17.50;100.00
36748;BME280;22716;51.556;5.080;2022-09-09T10:33:31;100455.75;;;17.77;100.00
36748;BME280;22716;51.556;5.080;2022-09-09T10:36:30;100471.81;;;17.92;100.00
36748;BME280;22716;51.556;5.080;2022-09-09T10:39:01;100466.41;;;17.94;100.00
36748;BME280;22716;51.556;5.080;2022-09-09T10:41:44;100469.47;;;17.85;100.00
36748;BME280;22716;51.556;5.080;2022-09-09T10:44:34;100460.41;;;17.72;100.00
36748;BME280;22716;51.556;5.080;2022-09-09T10:47:26;100463.81;;;17.74;100.00
36748;BME280;22716;51.556;5.080;2022-09-09T10:50:17;100459.81;;;17.65;100.00
36748;BME280;22716;51.556;5.080;2022-09-09T10:52:58;100468.25;;;17.55;100.00
36748;BME280;22716;51.556;5.080;2022-09-09T10:55:40;100463.91;;;17.52;100.00
36748;BME280;22716;51.556;5.080;2022-09-09T10:58:17;100473.41;;;17.58;100.00
36748;BME280;22716;51.556;5.080;2022-09-09T11:00:55;100459.59;;;17.50;100.00
36748;BME280;22716;51.556;5.080;2022-09-09T11:03:42;100454.38;;;17.48;100.00
36748;BME280;22716;51.556;5.080;2022-09-09T11:06:34;100471.13;;;17.49;100.00
36748;BME280;22716;51.556;5.080;2022-09-09T11:09:22;100474.91;;;17.43;100.00
36748;BME280;22716;51.556;5.080;2022-09-09T11:12:01;100469.69;;;17.42;100.00
36748;BME280;22716;51.556;5.080;2022-09-09T11:14:36;100453.41;;;17.30;100.00
36748;BME280;22716;51.556;5.080;2022-09-09T11:17:14;100470.06;;;17.32;100.00
36748;BME280;22716;51.556;5.080;2022-09-09T11:19:48;100466.28;;;17.38;100.00
36748;BME280;22716;51.556;5.080;2022-09-09T11:22:27;100472.28;;;17.43;100.00
36748;BME280;22716;51.556;5.080;2022-09-09T11:24:59;100464.97;;;17.48;100.00
36748;BME280;22716;51.556;5.080;2022-09-09T11:27:36;100464.19;;;17.46;100.00
36748;BME280;22716;51.556;5.080;2022-09-09T11:33:24;100450.69;;;17.52;100.00
36748;BME280;22716;51.556;5.080;2022-09-09T11:36:40;100463.69;;;17.77;100.00
36748;BME280;22716;51.556;5.080;2022-09-09T11:39:43;100461.94;;;17.96;100.00
36748;BME280;22716;51.556;5.080;2022-09-09T11:42:20;100459.13;;;17.99;100.00
36748;BME280;22716;51.556;5.080;2022-09-09T11:44:49;100466.13;;;18.00;100.00
36748;BME280;22716;51.556;5.080;2022-09-09T11:47:33;100443.13;;;17.82;100.00
36748;BME280;22716;51.556;5.080;2022-09-09T11:50:29;100467.63;;;18.06;100.00
36748;BME280;22716;51.556;5.080;2022-09-09T11:55:42;100454.88;;;17.95;100.00
36748;BME280;22716;51.556;5.080;2022-09-09T11:58:17;100481.03;;;18.03;100.00
36748;BME280;22716;51.556;5.080;2022-09-09T12:00:48;100465.22;;;18.01;100.00
36748;BME280;22716;51.556;5.080;2022-09-09T12:03:36;100468.84;;;18.17;100.00
36748;BME280;22716;51.556;5.080;2022-09-09T12:06:16;100469.41;;;18.24;100.00
36748;BME280;22716;51.556;5.080;2022-09-09T12:08:50;100461.31;;;18.27;100.00
36748;BME280;22716;51.556;5.080;2022-09-09T12:11:29;100461.69;;;18.19;100.00
36748;BME280;22716;51.556;5.080;2022-09-09T12:14:00;100464.56;;;18.15;100.00
36748;BME280;22716;51.556;5.080;2022-09-09T12:16:31;100462.13;;;18.10;100.00
36748;BME280;22716;51.556;5.080;2022-09-09T12:19:19;100464.41;;;18.18;100.00
36748;BME280;22716;51.556;5.080;2022-09-09T12:22:07;100464.41;;;18.18;100.00
36748;BME280;22716;51.556;5.080;2022-09-09T12:24:43;100468.22;;;18.12;100.00
36748;BME280;22716;51.556;5.080;2022-09-09T12:27:20;100468.50;;;18.25;100.00
36748;BME280;22716;51.556;5.080;2022-09-09T12:30:00;100468.56;;;18.61;100.00
36748;BME280;22716;51.556;5.080;2022-09-09T12:32:38;100461.78;;;18.89;100.00
36748;BME280;22716;51.556;5.080;2022-09-09T12:35:13;100428.50;;;18.82;100.00
36748;BME280;22716;51.556;5.080;2022-09-09T12:37:52;100463.25;;;19.12;100.00
36748;BME280;22716;51.556;5.080;2022-09-09T12:40:26;100453.91;;;19.39;100.00
36748;BME280;22716;51.556;5.080;2022-09-09T12:42:55;100448.16;;;19.47;100.00
36748;BME280;22716;51.556;5.080;2022-09-09T12:45:30;100444.25;;;19.54;100.00
36748;BME280;22716;51.556;5.080;2022-09-09T12:48:04;100446.03;;;19.53;100.00
36748;BME280;22716;51.556;5.080;2022-09-09T12:50:46;100452.94;;;19.58;100.00
36748;BME280;22716;51.556;5.080;2022-09-09T12:53:26;100444.31;;;19.52;100.00
36748;BME280;22716;51.556;5.080;2022-09-09T12:55:58;100448.91;;;19.66;100.00
36748;BME280;22716;51.556;5.080;2022-09-09T12:58:29;100455.84;;;19.69;99.84
36748;BME280;22716;51.556;5.080;2022-09-09T13:01:02;100449.84;;;19.65;99.78
36748;BME280;22716;51.556;5.080;2022-09-09T13:03:33;100445.56;;;19.63;98.76
36748;BME280;22716;51.556;5.080;2022-09-09T13:09:27;100441.00;;;19.49;98.48
36748;BME280;22716;51.556;5.080;2022-09-09T13:11:56;100441.75;;;19.51;98.38
36748;BME280;22716;51.556;5.080;2022-09-09T13:14:29;100445.88;;;19.56;98.25
36748;BME280;22716;51.556;5.080;2022-09-09T13:17:21;100436.81;;;19.61;97.90
36748;BME280;22716;51.556;5.080;2022-09-09T13:20:05;100439.75;;;19.72;97.60
36748;BME280;22716;51.556;5.080;2022-09-09T13:22:37;100444.19;;;19.71;97.52
36748;BME280;22716;51.556;5.080;2022-09-09T13:25:19;100442.47;;;19.70;97.12
36748;BME280;22716;51.556;5.080;2022-09-09T13:27:59;100441.72;;;19.68;97.46
36748;BME280;22716;51.556;5.080;2022-09-09T13:30:38;100444.00;;;19.58;97.88
36748;BME280;22716;51.556;5.080;2022-09-09T13:33:21;100439.81;;;19.54;97.06
36748;BME280;22716;51.556;5.080;2022-09-09T13:35:57;100439.06;;;19.68;96.23
36748;BME280;22716;51.556;5.080;2022-09-09T13:38:32;100441.66;;;19.85;95.68
36748;BME280;22716;51.556;5.080;2022-09-09T13:41:06;100446.56;;;19.93;95.34
36748;BME280;22716;51.556;5.080;2022-09-09T13:43:38;100441.41;;;20.05;94.53
36748;BME280;22716;51.556;5.080;2022-09-09T13:46:32;100438.91;;;20.18;93.55
36748;BME280;22716;51.556;5.080;2022-09-09T13:49:21;100440.31;;;20.41;92.52
36748;BME280;22716;51.556;5.080;2022-09-09T13:52:02;100434.78;;;20.59;91.75